Time;durP1;ratioP1;P1;durP2;ratioP2;P2;SDS_P1;SDS_P2;PMS_P1;PMS_P2;Temp;Humidity;BMP_temperature;BMP_pressure;BME280_temperature;BME280_humidity;BME280_pressure;Samples;Min_cycle;Max_cycle;Signal;HPM_P1;HPM_P2
2024/01/05 00:02:17;;;;;;;0.20;0.10;;;;;;;;;;4913999;28;20039;-86
2024/01/05 00:04:44;;;;;;;0.20;0.10;;;;;;;;;;4900133;28;20553;-85
2024/01/05 00:07:11;;;;;;;0.20;0.10;;;;;;;;;;4922126;28;20179;-85
2024/01/05 00:09:36;;;;;;;0.20;0.10;;;;;;;;;;4991143;28;20059;-83
2024/01/05 00:12:03;;;;;;;0.20;0.10;;;;;;;;;;4995176;28;20044;-86
2024/01/05 00:14:30;;;;;;;0.20;0.10;;;;;;;;;;4990201;28;20050;-84
2024/01/05 00:16:59;;;;;;;0.20;0.10;;;;;;;;;;5000724;28;20039;-85
2024/01/05 00:19:28;;;;;;;0.20;0.10;;;;;;;;;;4906106;28;20500;-86
2024/01/05 00:21:54;;;;;;;0.20;0.10;;;;;;;;;;4905093;29;20036;-85
2024/01/05 00:24:20;;;;;;;0.22;0.20;;;;;;;;;;4999387;28;20115;-85
2024/01/05 00:26:46;;;;;;;0.20;0.10;;;;;;;;;;5008199;28;20036;-85
2024/01/05 00:29:12;;;;;;;0.20;0.10;;;;;;;;;;4901114;28;20036;-85
2024/01/05 00:31:39;;;;;;;0.20;0.10;;;;;;;;;;4931646;28;20050;-84
2024/01/05 00:34:05;;;;;;;0.20;0.00;;;;;;;;;;4991979;28;20077;-83
2024/01/05 00:36:31;;;;;;;0.20;0.10;;;;;;;;;;4996679;28;20042;-84
2024/01/05 00:38:57;;;;;;;0.20;0.10;;;;;;;;;;4999402;28;20668;-85
2024/01/05 00:41:24;;;;;;;0.20;0.10;;;;;;;;;;5001151;28;20081;-86
2024/01/05 00:43:50;;;;;;;0.20;0.10;;;;;;;;;;5006037;28;20492;-86
2024/01/05 00:46:16;;;;;;;0.68;0.20;;;;;;;;;;4947448;28;20044;-85
2024/01/05 00:48:42;;;;;;;0.20;0.10;;;;;;;;;;4936598;28;20047;-84
2024/01/05 00:51:11;;;;;;;0.20;0.10;;;;;;;;;;4921973;28;20127;-86
2024/01/05 00:53:47;;;;;;;0.20;0.10;;;;;;;;;;4904564;28;20043;-87
2024/01/05 00:56:19;;;;;;;0.20;0.10;;;;;;;;;;5004808;28;20036;-84
2024/01/05 00:58:48;;;;;;;0.20;0.00;;;;;;;;;;4979124;28;20043;-84
2024/01/05 01:01:43;;;;;;;0.20;0.10;;;;;;;;;;4994160;28;20046;-85
2024/01/05 01:04:09;;;;;;;0.20;0.10;;;;;;;;;;5004230;28;20288;-85
2024/01/05 01:06:35;;;;;;;0.20;0.10;;;;;;;;;;4911572;28;20303;-83
2024/01/05 01:09:01;;;;;;;0.20;0.20;;;;;;;;;;4937908;28;20051;-84
2024/01/05 01:11:27;;;;;;;0.20;0.10;;;;;;;;;;5019360;23;20148;-85
2024/01/05 01:13:53;;;;;;;0.40;0.30;;;;;;;;;;4983145;28;20068;-82
2024/01/05 01:16:19;;;;;;;0.20;0.10;;;;;;;;;;4969391;28;20059;-85
2024/01/05 01:18:51;;;;;;;0.20;0.10;;;;;;;;;;4934093;28;20058;-84
2024/01/05 01:21:17;;;;;;;0.25;0.10;;;;;;;;;;4995887;28;20061;-86
2024/01/05 01:23:49;;;;;;;0.20;0.10;;;;;;;;;;5000073;28;20089;-84
2024/01/05 01:26:16;;;;;;;1.73;0.55;;;;;;;;;;4999410;28;20049;-85
2024/01/05 01:28:42;;;;;;;0.20;0.10;;;;;;;;;;4996490;28;20100;-84
2024/01/05 01:31:14;;;;;;;0.20;0.10;;;;;;;;;;4998848;28;20045;-85
2024/01/05 01:33:42;;;;;;;0.20;0.00;;;;;;;;;;5029248;28;20096;-84
2024/01/05 01:36:26;;;;;;;0.20;0.10;;;;;;;;;;4996545;28;20141;-84
2024/01/05 01:39:04;;;;;;;0.20;0.00;;;;;;;;;;5016068;28;20069;-84
2024/01/05 01:41:36;;;;;;;0.20;0.20;;;;;;;;;;5013967;28;20045;-88
2024/01/05 01:44:11;;;;;;;0.20;0.10;;;;;;;;;;4997489;28;20409;-84
2024/01/05 01:46:37;;;;;;;0.20;0.10;;;;;;;;;;4997459;28;20048;-84
2024/01/05 01:49:04;;;;;;;0.20;0.00;;;;;;;;;;4995658;28;20042;-83
2024/01/05 01:51:31;;;;;;;0.20;0.10;;;;;;;;;;5001143;28;20063;-84
2024/01/05 01:54:03;;;;;;;0.20;0.00;;;;;;;;;;4996002;28;20038;-85
2024/01/05 01:56:37;;;;;;;0.47;0.22;;;;;;;;;;4997630;28;20045;-86
2024/01/05 01:59:09;;;;;;;0.20;0.10;;;;;;;;;;5017182;28;20030;-85
2024/01/05 02:01:45;;;;;;;0.20;0.00;;;;;;;;;;4997147;28;20033;-84
2024/01/05 02:04:14;;;;;;;0.20;0.10;;;;;;;;;;5003274;28;20033;-83
2024/01/05 02:06:46;;;;;;;0.20;0.10;;;;;;;;;;5001690;28;20041;-86
2024/01/05 02:09:22;;;;;;;0.20;0.08;;;;;;;;;;5012207;28;20037;-84
2024/01/05 02:11:48;;;;;;;0.20;0.10;;;;;;;;;;4997071;28;20037;-84
2024/01/05 02:14:14;;;;;;;0.20;0.03;;;;;;;;;;4994951;28;20045;-84
2024/01/05 02:16:41;;;;;;;0.20;0.10;;;;;;;;;;5010828;28;20042;-84
2024/01/05 02:19:19;;;;;;;0.20;0.10;;;;;;;;;;5012742;28;20037;-85
2024/01/05 02:21:48;;;;;;;1.17;0.30;;;;;;;;;;4994390;28;20037;-86
2024/01/05 02:24:16;;;;;;;0.20;0.00;;;;;;;;;;5022629;28;20069;-87
2024/01/05 02:26:45;;;;;;;0.20;0.10;;;;;;;;;;4997922;28;20045;-85
2024/01/05 02:29:22;;;;;;;0.45;0.30;;;;;;;;;;5009267;28;20782;-84
2024/01/05 02:31:48;;;;;;;0.43;0.17;;;;;;;;;;4993341;28;20045;-86
2024/01/05 02:34:14;;;;;;;0.20;0.10;;;;;;;;;;5008510;28;20073;-85
2024/01/05 02:36:43;;;;;;;0.20;0.10;;;;;;;;;;5008514;28;20049;-86
2024/01/05 02:39:12;;;;;;;0.20;0.10;;;;;;;;;;4991023;28;20042;-84
2024/01/05 02:41:41;;;;;;;0.20;0.10;;;;;;;;;;4991606;28;20042;-85
2024/01/05 02:44:07;;;;;;;0.20;0.00;;;;;;;;;;5010498;28;20066;-85
2024/01/05 02:46:37;;;;;;;0.20;0.10;;;;;;;;;;5007764;28;20099;-84
2024/01/05 02:49:08;;;;;;;0.20;0.10;;;;;;;;;;4996001;28;20034;-86
2024/01/05 02:51:43;;;;;;;0.20;0.10;;;;;;;;;;5003047;28;20053;-85
2024/01/05 02:54:17;;;;;;;0.20;0.10;;;;;;;;;;5015455;28;20136;-84
2024/01/05 02:56:46;;;;;;;0.20;0.10;;;;;;;;;;4995902;28;20068;-83
2024/01/05 02:59:14;;;;;;;0.20;0.10;;;;;;;;;;5013833;28;20033;-85
2024/01/05 03:01:41;;;;;;;0.20;0.10;;;;;;;;;;4987716;28;20866;-83
2024/01/05 03:04:12;;;;;;;0.20;0.10;;;;;;;;;;4996733;28;20125;-86
2024/01/05 03:06:38;;;;;;;0.20;0.10;;;;;;;;;;4996593;28;20752;-83
2024/01/05 03:09:05;;;;;;;0.20;0.10;;;;;;;;;;4995098;28;20048;-83
2024/01/05 03:11:31;;;;;;;0.20;0.10;;;;;;;;;;4998428;28;20050;-84
2024/01/05 03:13:57;;;;;;;0.20;0.10;;;;;;;;;;4998425;28;20087;-83
2024/01/05 03:16:24;;;;;;;0.20;0.10;;;;;;;;;;4994769;28;20033;-83
2024/01/05 03:18:50;;;;;;;0.20;0.05;;;;;;;;;;5019250;28;20164;-84
2024/01/05 03:21:16;;;;;;;0.20;0.10;;;;;;;;;;4991105;28;20129;-83
2024/01/05 03:23:42;;;;;;;0.20;0.13;;;;;;;;;;5007840;28;20042;-81
2024/01/05 03:26:09;;;;;;;0.40;0.30;;;;;;;;;;5008381;28;20172;-83
2024/01/05 03:28:43;;;;;;;0.80;0.80;;;;;;;;;;4992675;28;20049;-84
2024/01/05 03:31:13;;;;;;;0.20;0.00;;;;;;;;;;4994398;28;20722;-84
2024/01/05 03:33:44;;;;;;;0.68;0.32;;;;;;;;;;4991311;28;20049;-83
2024/01/05 03:36:21;;;;;;;0.20;0.10;;;;;;;;;;5008203;28;20510;-82
2024/01/05 03:38:49;;;;;;;0.20;0.10;;;;;;;;;;5010914;28;20045;-83
2024/01/05 03:41:21;;;;;;;0.20;0.10;;;;;;;;;;4991248;28;20061;-82
2024/01/05 03:43:50;;;;;;;0.20;0.00;;;;;;;;;;5031608;23;20040;-84
2024/01/05 03:46:16;;;;;;;0.20;0.10;;;;;;;;;;5053719;28;20044;-84
2024/01/05 03:48:45;;;;;;;0.20;0.00;;;;;;;;;;5033486;28;20043;-84
2024/01/05 03:51:11;;;;;;;0.20;0.00;;;;;;;;;;5033559;28;20036;-84
2024/01/05 03:53:40;;;;;;;0.20;0.20;;;;;;;;;;5031687;28;20167;-86
2024/01/05 03:56:07;;;;;;;0.20;0.10;;;;;;;;;;5027798;28;20055;-87
2024/01/05 03:58:34;;;;;;;0.20;0.08;;;;;;;;;;5037010;28;20055;-84
2024/01/05 04:01:01;;;;;;;0.20;0.10;;;;;;;;;;5030243;28;20120;-84
2024/01/05 04:03:27;;;;;;;0.30;0.30;;;;;;;;;;5027862;28;20052;-85
2024/01/05 04:05:53;;;;;;;0.20;0.10;;;;;;;;;;5047359;28;20040;-86
2024/01/05 04:08:22;;;;;;;0.57;0.50;;;;;;;;;;5045786;28;20047;-85
2024/01/05 04:10:48;;;;;;;0.20;0.00;;;;;;;;;;5030905;28;20501;-87
2024/01/05 04:13:14;;;;;;;0.20;0.05;;;;;;;;;;5034713;28;20036;-87
2024/01/05 04:15:40;;;;;;;0.20;0.10;;;;;;;;;;5028666;28;20047;-85
2024/01/05 04:18:06;;;;;;;0.20;0.10;;;;;;;;;;5033280;28;20041;-85
2024/01/05 04:20:35;;;;;;;0.22;0.13;;;;;;;;;;5028308;28;20496;-85
2024/01/05 04:23:01;;;;;;;0.20;0.10;;;;;;;;;;5044544;28;20033;-85
2024/01/05 04:25:27;;;;;;;0.20;0.10;;;;;;;;;;5023920;28;20492;-85
2024/01/05 04:27:54;;;;;;;0.20;0.10;;;;;;;;;;5042772;28;20056;-85
2024/01/05 04:30:21;;;;;;;0.20;0.10;;;;;;;;;;5028613;28;20047;-83
2024/01/05 04:32:47;;;;;;;0.20;0.10;;;;;;;;;;5027441;28;20032;-85
2024/01/05 04:35:13;;;;;;;0.20;0.20;;;;;;;;;;5027334;28;20041;-85
2024/01/05 04:37:39;;;;;;;0.20;0.00;;;;;;;;;;5027194;28;20133;-84
2024/01/05 04:40:06;;;;;;;0.20;0.00;;;;;;;;;;5027178;28;20120;-85
2024/01/05 04:42:32;;;;;;;0.20;0.10;;;;;;;;;;5032779;28;20073;-84
2024/01/05 04:44:58;;;;;;;0.30;0.20;;;;;;;;;;5031442;28;20106;-85
2024/01/05 04:47:27;;;;;;;0.20;0.10;;;;;;;;;;5040748;28;20671;-83
2024/01/05 04:49:53;;;;;;;0.20;0.10;;;;;;;;;;5035566;28;20123;-84
2024/01/05 04:52:19;;;;;;;0.20;0.10;;;;;;;;;;5047004;28;20044;-83
2024/01/05 04:54:45;;;;;;;0.20;0.10;;;;;;;;;;5046988;28;20136;-86
2024/01/05 04:57:11;;;;;;;1.27;0.40;;;;;;;;;;5046332;28;20472;-84
2024/01/05 04:59:37;;;;;;;0.20;0.10;;;;;;;;;;5026799;28;20039;-85
2024/01/05 05:02:03;;;;;;;0.20;0.03;;;;;;;;;;5021605;28;20029;-84
2024/01/05 05:04:29;;;;;;;0.73;0.30;;;;;;;;;;5045206;28;20037;-86
2024/01/05 05:06:56;;;;;;;0.20;0.00;;;;;;;;;;5044279;28;20032;-85
2024/01/05 05:09:22;;;;;;;0.20;0.10;;;;;;;;;;5033056;28;20055;-83
2024/01/05 05:11:48;;;;;;;0.20;0.10;;;;;;;;;;5045780;28;20041;-85
2024/01/05 05:14:14;;;;;;;0.20;0.00;;;;;;;;;;5029368;28;20036;-84
2024/01/05 05:16:41;;;;;;;0.20;0.00;;;;;;;;;;5048034;28;20045;-86
2024/01/05 05:19:07;;;;;;;0.20;0.10;;;;;;;;;;5025397;28;20043;-84
2024/01/05 05:21:33;;;;;;;0.20;0.00;;;;;;;;;;5033219;28;20127;-85
2024/01/05 05:23:59;;;;;;;0.20;0.10;;;;;;;;;;5028605;28;20527;-86
2024/01/05 05:26:25;;;;;;;0.20;0.00;;;;;;;;;;5031017;28;20520;-84
2024/01/05 05:28:51;;;;;;;0.30;0.20;;;;;;;;;;5029170;28;20047;-85
2024/01/05 05:31:17;;;;;;;0.20;0.10;;;;;;;;;;5031851;28;20064;-84
2024/01/05 05:33:43;;;;;;;0.20;0.00;;;;;;;;;;5030709;28;20044;-85
2024/01/05 05:36:11;;;;;;;0.20;0.10;;;;;;;;;;5047191;28;20041;-85
2024/01/05 05:38:37;;;;;;;0.20;0.00;;;;;;;;;;5060975;28;20033;-84
2024/01/05 05:41:03;;;;;;;0.20;0.00;;;;;;;;;;5033404;28;20033;-85
2024/01/05 05:43:29;;;;;;;0.20;0.00;;;;;;;;;;5030128;28;20036;-88
2024/01/05 05:45:55;;;;;;;0.20;0.10;;;;;;;;;;5032042;28;20484;-85
2024/01/05 05:48:22;;;;;;;0.20;0.10;;;;;;;;;;5046834;28;20044;-86
2024/01/05 05:50:48;;;;;;;0.20;0.10;;;;;;;;;;5047713;28;20051;-84
2024/01/05 05:53:14;;;;;;;0.20;0.10;;;;;;;;;;5029975;28;20040;-84
2024/01/05 05:55:40;;;;;;;0.20;0.10;;;;;;;;;;5030045;28;20186;-85
2024/01/05 05:58:08;;;;;;;0.20;0.10;;;;;;;;;;5028412;28;20397;-86
2024/01/05 06:00:35;;;;;;;0.20;0.10;;;;;;;;;;5029657;28;20036;-85
2024/01/05 06:03:01;;;;;;;0.20;0.20;;;;;;;;;;5030880;28;20037;-85
2024/01/05 06:05:27;;;;;;;0.20;0.00;;;;;;;;;;5031434;28;20135;-85
2024/01/05 06:07:54;;;;;;;0.20;0.00;;;;;;;;;;5032927;28;20072;-85
2024/01/05 06:10:20;;;;;;;0.20;0.10;;;;;;;;;;5032912;28;20550;-84
2024/01/05 06:12:46;;;;;;;0.20;0.10;;;;;;;;;;5032435;28;20484;-85
2024/01/05 06:15:12;;;;;;;0.20;0.00;;;;;;;;;;5048874;28;20037;-86
2024/01/05 06:17:38;;;;;;;0.20;0.10;;;;;;;;;;5050260;28;20040;-84
2024/01/05 06:20:04;;;;;;;0.20;0.10;;;;;;;;;;5031646;28;20044;-85
2024/01/05 06:22:32;;;;;;;0.20;0.10;;;;;;;;;;5050384;28;20119;-85
2024/01/05 06:24:57;;;;;;;0.20;0.10;;;;;;;;;;5056023;28;20094;-85
2024/01/05 06:27:23;;;;;;;0.20;0.00;;;;;;;;;;5049037;28;20045;-84
2024/01/05 06:29:49;;;;;;;0.20;0.10;;;;;;;;;;5050056;28;20045;-85
2024/01/05 06:32:15;;;;;;;0.20;0.00;;;;;;;;;;5029959;28;20040;-83
2024/01/05 06:34:41;;;;;;;0.20;0.00;;;;;;;;;;5050599;28;20037;-89
2024/01/05 06:37:08;;;;;;;0.20;0.15;;;;;;;;;;5034448;28;20049;-85
2024/01/05 06:39:34;;;;;;;0.20;0.10;;;;;;;;;;5028101;28;20040;-85
2024/01/05 06:42:00;;;;;;;0.30;0.30;;;;;;;;;;5038189;28;20048;-84
2024/01/05 06:44:26;;;;;;;0.20;0.10;;;;;;;;;;5051157;28;20040;-84
2024/01/05 06:46:52;;;;;;;0.20;0.10;;;;;;;;;;5028033;28;20043;-85
2024/01/05 06:49:21;;;;;;;0.20;0.10;;;;;;;;;;5034019;28;20144;-85
2024/01/05 06:51:47;;;;;;;0.20;0.10;;;;;;;;;;5045455;28;20136;-83
2024/01/05 06:54:14;;;;;;;0.20;0.10;;;;;;;;;;5032014;28;20060;-86
2024/01/05 06:56:44;;;;;;;0.20;0.10;;;;;;;;;;5032694;28;20041;-86
2024/01/05 06:59:10;;;;;;;1.55;0.55;;;;;;;;;;5032345;28;20374;-85
2024/01/05 07:01:36;;;;;;;0.20;0.10;;;;;;;;;;5027784;28;20033;-87
2024/01/05 07:04:03;;;;;;;0.20;0.05;;;;;;;;;;5035122;28;20036;-86
2024/01/05 07:06:29;;;;;;;0.20;0.10;;;;;;;;;;5037024;28;20040;-84
2024/01/05 07:08:55;;;;;;;0.20;0.00;;;;;;;;;;5028061;28;20128;-84
2024/01/05 07:11:21;;;;;;;0.20;0.15;;;;;;;;;;5027153;28;20036;-84
2024/01/05 07:13:48;;;;;;;0.20;0.00;;;;;;;;;;5030879;28;20128;-85
2024/01/05 07:16:16;;;;;;;0.30;0.28;;;;;;;;;;5025438;28;20408;-84
2024/01/05 07:18:42;;;;;;;0.20;0.03;;;;;;;;;;5032107;28;20516;-84
2024/01/05 07:21:09;;;;;;;0.20;0.00;;;;;;;;;;5026566;28;20044;-85
2024/01/05 07:23:36;;;;;;;0.20;0.10;;;;;;;;;;5032834;28;20032;-85
2024/01/05 07:26:02;;;;;;;0.52;0.32;;;;;;;;;;5022933;28;20032;-84
2024/01/05 07:28:28;;;;;;;0.30;0.30;;;;;;;;;;5029877;28;20037;-85
2024/01/05 07:30:56;;;;;;;0.20;0.10;;;;;;;;;;5044587;28;20040;-86
2024/01/05 07:33:22;;;;;;;0.20;0.15;;;;;;;;;;5032983;28;20119;-86
2024/01/05 07:35:49;;;;;;;0.20;0.10;;;;;;;;;;5033010;28;20075;-85
2024/01/05 07:38:18;;;;;;;0.30;0.30;;;;;;;;;;5030507;28;20052;-84
2024/01/05 07:40:44;;;;;;;0.20;0.00;;;;;;;;;;5047787;28;20059;-85
2024/01/05 07:43:12;;;;;;;0.20;0.10;;;;;;;;;;5030114;28;20059;-84
2024/01/05 07:45:38;;;;;;;0.20;0.10;;;;;;;;;;5053598;28;20051;-85
2024/01/05 07:48:05;;;;;;;0.20;0.00;;;;;;;;;;5032724;28;20036;-86
2024/01/05 07:50:31;;;;;;;0.20;0.00;;;;;;;;;;5049514;28;20044;-87
2024/01/05 07:52:57;;;;;;;0.20;0.10;;;;;;;;;;5050763;28;20043;-86
2024/01/05 07:55:23;;;;;;;0.20;0.10;;;;;;;;;;5048263;28;20393;-86
2024/01/05 07:57:49;;;;;;;0.20;0.03;;;;;;;;;;5044775;28;20051;-86
2024/01/05 08:00:16;;;;;;;0.20;0.00;;;;;;;;;;5051900;28;20072;-85
2024/01/05 08:02:42;;;;;;;0.20;0.10;;;;;;;;;;5030556;28;20045;-84
2024/01/05 08:05:11;;;;;;;0.20;0.10;;;;;;;;;;5040243;28;20103;-85
2024/01/05 08:07:42;;;;;;;0.55;0.32;;;;;;;;;;5057504;28;20048;-85
2024/01/05 08:10:11;;;;;;;0.20;0.10;;;;;;;;;;5043421;28;20037;-86
2024/01/05 08:12:37;;;;;;;0.20;0.10;;;;;;;;;;5032737;28;20033;-85
2024/01/05 08:15:03;;;;;;;0.20;0.00;;;;;;;;;;5037097;28;20040;-87
2024/01/05 08:17:29;;;;;;;0.20;0.00;;;;;;;;;;5047628;28;20061;-85
2024/01/05 08:19:55;;;;;;;0.20;0.10;;;;;;;;;;5049862;28;20036;-85
2024/01/05 08:22:21;;;;;;;0.20;0.00;;;;;;;;;;5032013;28;20048;-85
2024/01/05 08:24:47;;;;;;;0.43;0.43;;;;;;;;;;5030357;28;20040;-90
2024/01/05 08:27:14;;;;;;;0.20;0.10;;;;;;;;;;5030633;28;20037;-85
2024/01/05 08:29:42;;;;;;;0.20;0.00;;;;;;;;;;5032264;28;20305;-85
2024/01/05 08:32:08;;;;;;;0.20;0.10;;;;;;;;;;5030429;28;20032;-85
2024/01/05 08:34:34;;;;;;;0.20;0.00;;;;;;;;;;5033772;28;20202;-84
2024/01/05 08:37:00;;;;;;;0.20;0.00;;;;;;;;;;5042902;28;20036;-85
2024/01/05 08:39:26;;;;;;;0.20;0.10;;;;;;;;;;5026834;28;20082;-85
2024/01/05 08:41:55;;;;;;;0.20;0.10;;;;;;;;;;5032226;28;20045;-85
2024/01/05 08:44:21;;;;;;;0.20;0.10;;;;;;;;;;5031659;28;20106;-86
2024/01/05 08:46:47;;;;;;;0.20;0.10;;;;;;;;;;5030461;28;20092;-86
2024/01/05 08:49:13;;;;;;;0.20;0.00;;;;;;;;;;5046651;28;20451;-85
2024/01/05 08:51:45;;;;;;;0.37;0.37;;;;;;;;;;5047215;28;20116;-84
2024/01/05 08:54:12;;;;;;;0.20;0.10;;;;;;;;;;5027807;28;20051;-84
2024/01/05 08:56:38;;;;;;;0.20;0.10;;;;;;;;;;5029195;28;20041;-85
2024/01/05 08:59:07;;;;;;;0.20;0.10;;;;;;;;;;5031189;28;20052;-85
2024/01/05 09:01:33;;;;;;;0.20;0.20;;;;;;;;;;5041409;28;20139;-86
2024/01/05 09:04:00;;;;;;;0.20;0.10;;;;;;;;;;5051360;23;20072;-86
2024/01/05 09:06:25;;;;;;;0.20;0.10;;;;;;;;;;5040203;28;20103;-84
2024/01/05 09:08:51;;;;;;;0.20;0.05;;;;;;;;;;5027701;28;20037;-85
2024/01/05 09:11:17;;;;;;;0.20;0.00;;;;;;;;;;5045561;28;20493;-85
2024/01/05 09:13:43;;;;;;;0.20;0.10;;;;;;;;;;5027420;28;20151;-84
2024/01/05 09:16:09;;;;;;;0.20;0.10;;;;;;;;;;5044259;28;20060;-85
2024/01/05 09:18:37;;;;;;;0.20;0.00;;;;;;;;;;5040187;28;20447;-85
2024/01/05 09:21:06;;;;;;;0.20;0.10;;;;;;;;;;5041147;28;20036;-84
2024/01/05 09:23:32;;;;;;;0.20;0.00;;;;;;;;;;5021704;28;20938;-84
2024/01/05 09:25:58;;;;;;;0.20;0.00;;;;;;;;;;5038961;28;20041;-85
2024/01/05 09:28:24;;;;;;;0.20;0.08;;;;;;;;;;5023554;28;20052;-85
2024/01/05 09:30:50;;;;;;;0.20;0.00;;;;;;;;;;5024590;28;20036;-85
2024/01/05 09:33:17;;;;;;;0.20;0.20;;;;;;;;;;5023439;28;20033;-85
2024/01/05 09:35:43;;;;;;;0.30;0.28;;;;;;;;;;5040135;28;20044;-86
2024/01/05 09:38:09;;;;;;;0.20;0.20;;;;;;;;;;5036815;28;21362;-84
2024/01/05 09:40:35;;;;;;;0.20;0.20;;;;;;;;;;5039865;28;20033;-84
2024/01/05 09:43:02;;;;;;;0.20;0.00;;;;;;;;;;5022504;28;20033;-85
2024/01/05 09:45:29;;;;;;;0.20;0.10;;;;;;;;;;5026638;28;20079;-83
2024/01/05 09:47:57;;;;;;;0.20;0.10;;;;;;;;;;5052430;28;20484;-84
2024/01/05 09:50:24;;;;;;;0.20;0.10;;;;;;;;;;5047194;28;20088;-84
2024/01/05 09:52:50;;;;;;;0.20;0.10;;;;;;;;;;5045215;28;20417;-85
2024/01/05 09:55:16;;;;;;;0.20;0.10;;;;;;;;;;5024665;28;20120;-85
2024/01/05 09:57:43;;;;;;;0.20;0.10;;;;;;;;;;5027686;28;20148;-86
2024/01/05 10:00:13;;;;;;;0.20;0.00;;;;;;;;;;5028510;28;20033;-85
2024/01/05 10:02:46;;;;;;;0.20;0.00;;;;;;;;;;5030207;28;20497;-85
2024/01/05 10:05:12;;;;;;;0.20;0.10;;;;;;;;;;5028527;28;20059;-85
2024/01/05 10:07:43;;;;;;;0.20;0.03;;;;;;;;;;5053482;28;20624;-84
2024/01/05 10:10:11;;;;;;;0.20;0.10;;;;;;;;;;5039945;28;20413;-83
2024/01/05 10:12:37;;;;;;;0.20;0.00;;;;;;;;;;5042060;28;20464;-85
2024/01/05 10:15:07;;;;;;;0.20;0.10;;;;;;;;;;5045190;28;20103;-85
2024/01/05 10:17:34;;;;;;;0.52;0.20;;;;;;;;;;5045710;28;20040;-84
2024/01/05 10:20:18;;;;;;;0.20;0.00;;;;;;;;;;5029145;28;20382;-86
2024/01/05 10:22:46;;;;;;;0.20;0.00;;;;;;;;;;5025089;28;20127;-88
2024/01/05 10:25:16;;;;;;;0.20;0.00;;;;;;;;;;5027331;28;20056;-86
2024/01/05 10:27:43;;;;;;;0.20;0.10;;;;;;;;;;5027908;28;20048;-86
2024/01/05 10:30:10;;;;;;;0.20;0.20;;;;;;;;;;5030077;28;20052;-86
2024/01/05 10:32:36;;;;;;;0.20;0.10;;;;;;;;;;5031548;28;20033;-86
2024/01/05 10:35:03;;;;;;;0.20;0.03;;;;;;;;;;5028183;28;20493;-86
2024/01/05 10:37:29;;;;;;;0.20;0.10;;;;;;;;;;5043994;28;20504;-86
2024/01/05 10:39:56;;;;;;;0.40;0.40;;;;;;;;;;5027159;28;20090;-86
2024/01/05 10:42:29;;;;;;;0.20;0.08;;;;;;;;;;5047097;28;20037;-85
2024/01/05 10:44:55;;;;;;;;;;;;;;;;;;5030724;28;20134;-86
2024/01/05 10:47:30;;;;;;;0.20;0.10;;;;;;;;;;5045827;28;20401;-87
2024/01/05 10:49:56;;;;;;;0.20;0.10;;;;;;;;;;5028569;28;20041;-86
2024/01/05 10:52:23;;;;;;;0.20;0.10;;;;;;;;;;5029112;28;20424;-87
2024/01/05 10:54:52;;;;;;;0.20;0.00;;;;;;;;;;5039555;28;20523;-86
2024/01/05 10:57:19;;;;;;;0.20;0.10;;;;;;;;;;5025764;28;20509;-86
2024/01/05 10:59:45;;;;;;;0.20;0.10;;;;;;;;;;5036780;28;20056;-85
2024/01/05 11:02:19;;;;;;;0.20;0.10;;;;;;;;;;5045356;28;20057;-86
2024/01/05 11:04:45;;;;;;;0.20;0.00;;;;;;;;;;5033905;28;20171;-86
2024/01/05 11:07:15;;;;;;;0.20;0.10;;;;;;;;;;5030908;28;20102;-88
2024/01/05 11:10:08;;;;;;;0.20;0.20;;;;;;;;;;5031321;28;20112;-86
2024/01/05 11:13:01;;;;;;;0.93;0.70;;;;;;;;;;5030184;28;20057;-87
2024/01/05 11:15:30;;;;;;;0.20;0.10;;;;;;;;;;5023850;28;20053;-87
2024/01/05 11:18:03;;;;;;;0.20;0.20;;;;;;;;;;5042402;28;20041;-86
2024/01/05 11:20:29;;;;;;;0.20;0.10;;;;;;;;;;5046803;28;20090;-86
2024/01/05 11:22:56;;;;;;;0.20;0.08;;;;;;;;;;5043887;28;20057;-86
2024/01/05 11:25:22;;;;;;;0.20;0.00;;;;;;;;;;5041532;28;20119;-86
2024/01/05 11:27:49;;;;;;;0.20;0.00;;;;;;;;;;5030874;28;20107;-86
2024/01/05 11:30:15;;;;;;;0.20;0.10;;;;;;;;;;5030601;28;20069;-87
2024/01/05 11:32:42;;;;;;;0.20;0.00;;;;;;;;;;5030773;28;20048;-86
2024/01/05 11:35:17;;;;;;;0.20;0.10;;;;;;;;;;5041146;28;20533;-86
2024/01/05 11:37:50;;;;;;;0.20;0.20;;;;;;;;;;5047289;28;20037;-86
2024/01/05 11:40:28;;;;;;;0.20;0.10;;;;;;;;;;5027656;28;20048;-86
2024/01/05 11:42:54;;;;;;;0.20;0.00;;;;;;;;;;5044322;28;20048;-85
2024/01/05 11:45:39;;;;;;;0.20;0.00;;;;;;;;;;5038752;28;20055;-87
2024/01/05 11:48:05;;;;;;;0.20;0.10;;;;;;;;;;5026149;28;20071;-87
2024/01/05 11:50:38;;;;;;;0.20;0.00;;;;;;;;;;5022539;28;20064;-86
2024/01/05 11:53:18;;;;;;;0.20;0.00;;;;;;;;;;5040498;28;20037;-86
2024/01/05 11:55:51;;;;;;;0.20;0.00;;;;;;;;;;5039799;28;20258;-86
2024/01/05 11:58:22;;;;;;;0.20;0.10;;;;;;;;;;5025767;28;20071;-86
2024/01/05 12:00:48;;;;;;;0.20;0.10;;;;;;;;;;5019876;28;20045;-85
2024/01/05 12:03:15;;;;;;;0.20;0.10;;;;;;;;;;5037779;28;20055;-85
2024/01/05 12:05:41;;;;;;;0.20;0.10;;;;;;;;;;5043190;28;20075;-85
2024/01/05 12:08:11;;;;;;;0.20;0.10;;;;;;;;;;5048648;28;20036;-86
2024/01/05 12:10:38;;;;;;;0.20;0.00;;;;;;;;;;5046066;28;20044;-86
2024/01/05 12:13:04;;;;;;;0.20;0.00;;;;;;;;;;5044934;28;20086;-85
2024/01/05 12:15:32;;;;;;;0.20;0.00;;;;;;;;;;5044829;28;20068;-86
2024/01/05 12:18:07;;;;;;;0.20;0.10;;;;;;;;;;5031244;28;20044;-86
2024/01/05 12:20:34;;;;;;;0.20;0.10;;;;;;;;;;5029486;28;20722;-86
2024/01/05 12:23:00;;;;;;;0.20;0.00;;;;;;;;;;5026149;28;20032;-87
2024/01/05 12:25:26;;;;;;;0.20;0.00;;;;;;;;;;5031541;28;20048;-85
2024/01/05 12:27:52;;;;;;;0.20;0.10;;;;;;;;;;5029574;28;20051;-85
2024/01/05 12:30:19;;;;;;;0.20;0.00;;;;;;;;;;5047496;28;20044;-85
2024/01/05 12:32:45;;;;;;;0.20;0.00;;;;;;;;;;5024738;28;20043;-86
2024/01/05 12:35:12;;;;;;;0.20;0.10;;;;;;;;;;5042663;28;20049;-85
2024/01/05 12:37:50;;;;;;;0.20;0.10;;;;;;;;;;5029423;28;20045;-86
2024/01/05 12:40:21;;;;;;;0.20;0.00;;;;;;;;;;5029751;28;20035;-85
2024/01/05 12:42:47;;;;;;;0.20;0.10;;;;;;;;;;5047817;28;20041;-85
2024/01/05 12:45:13;;;;;;;0.20;0.10;;;;;;;;;;5045914;28;20602;-85
2024/01/05 12:47:39;;;;;;;0.20;0.00;;;;;;;;;;5030751;28;20070;-85
2024/01/05 12:50:05;;;;;;;0.20;0.10;;;;;;;;;;5029824;28;20058;-83
2024/01/05 12:52:34;;;;;;;0.20;0.08;;;;;;;;;;5049164;28;20040;-83
2024/01/05 12:55:06;;;;;;;0.20;0.10;;;;;;;;;;5031683;28;20047;-84
2024/01/05 12:57:32;;;;;;;0.20;0.10;;;;;;;;;;5047304;28;20036;-82
2024/01/05 13:00:05;;;;;;;0.20;0.10;;;;;;;;;;5046943;28;20585;-83
2024/01/05 13:02:38;;;;;;;0.20;0.00;;;;;;;;;;5049266;28;20041;-82
2024/01/05 13:05:23;;;;;;;0.20;0.00;;;;;;;;;;5032847;28;20032;-82
2024/01/05 13:07:49;;;;;;;0.20;0.00;;;;;;;;;;5029000;28;20093;-82
2024/01/05 13:10:15;;;;;;;0.20;0.00;;;;;;;;;;5046898;28;20033;-83
2024/01/05 13:12:45;;;;;;;0.20;0.00;;;;;;;;;;5033507;28;20036;-82
2024/01/05 13:15:12;;;;;;;0.20;0.10;;;;;;;;;;5036625;28;20050;-82
2024/01/05 13:17:42;;;;;;;0.20;0.10;;;;;;;;;;5045404;28;20408;-83
2024/01/05 13:20:09;;;;;;;0.20;0.05;;;;;;;;;;5045590;28;20040;-82
2024/01/05 13:22:35;;;;;;;0.20;0.00;;;;;;;;;;5035557;28;20037;-84
2024/01/05 13:25:01;;;;;;;0.20;0.10;;;;;;;;;;5031084;28;20063;-83
2024/01/05 13:27:27;;;;;;;0.20;0.00;;;;;;;;;;5034817;28;20029;-83
2024/01/05 13:29:53;;;;;;;0.20;0.00;;;;;;;;;;5051248;28;20036;-84
2024/01/05 13:32:19;;;;;;;0.20;0.00;;;;;;;;;;5046530;28;20044;-84
2024/01/05 13:34:45;;;;;;;0.20;0.10;;;;;;;;;;5034018;28;20037;-83
2024/01/05 13:37:12;;;;;;;0.20;0.00;;;;;;;;;;5031837;28;20540;-83
2024/01/05 13:39:41;;;;;;;0.22;0.13;;;;;;;;;;5049265;28;20044;-83
2024/01/05 13:42:07;;;;;;;0.20;0.00;;;;;;;;;;5031735;28;20035;-82
2024/01/05 13:44:34;;;;;;;0.20;0.00;;;;;;;;;;5029703;28;20071;-84
2024/01/05 13:47:00;;;;;;;0.20;0.03;;;;;;;;;;5049130;28;20038;-83
2024/01/05 13:49:29;;;;;;;0.20;0.10;;;;;;;;;;5047059;28;20040;-84
2024/01/05 13:51:55;;;;;;;0.20;0.10;;;;;;;;;;5049639;28;20047;-84
2024/01/05 13:54:21;;;;;;;0.20;0.00;;;;;;;;;;5048131;28;20039;-84
2024/01/05 13:56:47;;;;;;;0.20;0.00;;;;;;;;;;5034318;28;20033;-84
2024/01/05 13:59:14;;;;;;;0.20;0.10;;;;;;;;;;5064952;28;20151;-84
2024/01/05 14:01:43;;;;;;;0.20;0.10;;;;;;;;;;5049401;28;20040;-84
2024/01/05 14:04:09;;;;;;;0.20;0.00;;;;;;;;;;5030965;28;20047;-85
2024/01/05 14:06:35;;;;;;;0.20;0.00;;;;;;;;;;5050303;28;20045;-86
2024/01/05 14:09:01;;;;;;;0.20;0.10;;;;;;;;;;5031446;28;20162;-86
2024/01/05 14:11:27;;;;;;;0.20;0.00;;;;;;;;;;5033847;28;20032;-85
2024/01/05 14:13:53;;;;;;;0.20;0.00;;;;;;;;;;5063065;28;20068;-85
2024/01/05 14:16:19;;;;;;;0.20;0.00;;;;;;;;;;5027913;28;20056;-84
2024/01/05 14:18:45;;;;;;;0.20;0.00;;;;;;;;;;5021916;28;20045;-84
2024/01/05 14:21:11;;;;;;;0.20;0.05;;;;;;;;;;5035207;28;20450;-85
2024/01/05 14:23:40;;;;;;;0.20;0.00;;;;;;;;;;5033880;28;20040;-84
2024/01/05 14:26:12;;;;;;;0.20;0.10;;;;;;;;;;5046324;28;20040;-83
2024/01/05 14:28:44;;;;;;;0.20;0.00;;;;;;;;;;5028566;28;20043;-83
2024/01/05 14:31:26;;;;;;;0.20;0.00;;;;;;;;;;5042942;28;20408;-85
2024/01/05 14:33:53;;;;;;;0.20;0.00;;;;;;;;;;5031095;28;20404;-84
2024/01/05 14:36:19;;;;;;;0.20;0.10;;;;;;;;;;5047789;28;20036;-84
2024/01/05 14:38:45;;;;;;;0.20;0.00;;;;;;;;;;5044675;28;20033;-83
2024/01/05 14:41:11;;;;;;;0.20;0.00;;;;;;;;;;5045755;28;20496;-83
2024/01/05 14:43:37;;;;;;;0.20;0.00;;;;;;;;;;5051924;28;20043;-83
2024/01/05 14:46:03;;;;;;;0.20;0.10;;;;;;;;;;5050328;28;20062;-83
2024/01/05 14:48:31;;;;;;;0.32;0.10;;;;;;;;;;5051692;28;20044;-84